Time;durP1;ratioP1;P1;durP2;ratioP2;P2;SDS_P1;SDS_P2;PMS_P1;PMS_P2;Temp;Humidity;BMP_temperature;BMP_pressure;BME280_temperature;BME280_humidity;BME280_pressure;Samples;Min_cycle;Max_cycle;Signal;HPM_P1;HPM_P2
2023/03/18 00:00:42;;;;;;;6.37;4.30;;;;;;;;;;5108362;28;20207;-82
2023/03/18 00:03:09;;;;;;;5.07;4.30;;;;;;;;;;5115277;28;20211;-80
2023/03/18 00:05:36;;;;;;;5.90;4.97;;;;;;;;;;5100899;28;20235;-81
2023/03/18 00:08:04;;;;;;;4.63;4.07;;;;;;;;;;5095058;28;20211;-81
2023/03/18 00:10:31;;;;;;;4.63;4.07;;;;;;;;;;5107794;28;20235;-81
2023/03/18 00:12:58;;;;;;;4.90;4.40;;;;;;;;;;5107541;28;20204;-84
2023/03/18 00:15:25;;;;;;;5.40;4.23;;;;;;;;;;5095202;28;20583;-81
2023/03/18 00:17:53;;;;;;;5.43;4.80;;;;;;;;;;5106932;28;20228;-81
2023/03/18 00:20:27;;;;;;;5.43;4.47;;;;;;;;;;5096267;28;20653;-81
2023/03/18 00:22:56;;;;;;;5.93;3.90;;;;;;;;;;5105002;28;20208;-81
2023/03/18 00:25:23;;;;;;;4.50;4.10;;;;;;;;;;5110588;28;20207;-81
2023/03/18 00:27:50;;;;;;;4.37;3.97;;;;;;;;;;5114407;28;20291;-81
2023/03/18 00:30:17;;;;;;;5.00;4.50;;;;;;;;;;5110436;28;20200;-80
2023/03/18 00:32:45;;;;;;;4.23;3.83;;;;;;;;;;5104317;28;20200;-81
2023/03/18 00:35:13;;;;;;;4.60;4.13;;;;;;;;;;5100891;28;20286;-81
2023/03/18 00:37:41;;;;;;;4.90;4.47;;;;;;;;;;5114132;28;20231;-81
2023/03/18 00:40:16;;;;;;;5.47;4.30;;;;;;;;;;5114499;28;20199;-81
2023/03/18 00:42:46;;;;;;;4.87;4.47;;;;;;;;;;5101898;28;20234;-80
2023/03/18 00:45:14;;;;;;;4.70;4.00;;;;;;;;;;5107522;28;20671;-81
2023/03/18 00:47:41;;;;;;;5.60;4.53;;;;;;;;;;5106844;28;20298;-81
2023/03/18 00:50:10;;;;;;;5.07;4.53;;;;;;;;;;5114190;28;20195;-82
2023/03/18 00:52:38;;;;;;;4.80;4.30;;;;;;;;;;5100671;28;20656;-80
2023/03/18 00:55:07;;;;;;;6.10;5.50;;;;;;;;;;5080206;28;20204;-80
2023/03/18 00:57:33;;;;;;;5.93;4.80;;;;;;;;;;5093790;28;20267;-80
2023/03/18 01:00:00;;;;;;;4.83;4.33;;;;;;;;;;5100957;28;20207;-80
2023/03/18 01:02:28;;;;;;;5.00;4.50;;;;;;;;;;5099385;28;20208;-80
2023/03/18 01:04:55;;;;;;;6.30;5.23;;;;;;;;;;5093847;28;20257;-80
2023/03/18 01:07:23;;;;;;;6.03;5.07;;;;;;;;;;5108705;28;20215;-80
2023/03/18 01:09:51;;;;;;;6.77;5.37;;;;;;;;;;5105762;28;20204;-80
2023/03/18 01:12:18;;;;;;;4.97;4.47;;;;;;;;;;5093337;28;20766;-80
2023/03/18 01:14:45;;;;;;;5.90;4.10;;;;;;;;;;5102212;28;20211;-79
2023/03/18 01:17:12;;;;;;;7.03;5.90;;;;;;;;;;5097829;28;20236;-80
2023/03/18 01:19:40;;;;;;;7.50;5.87;;;;;;;;;;5092724;28;20739;-80
2023/03/18 01:22:06;;;;;;;6.50;5.10;;;;;;;;;;5109229;28;20262;-80
2023/03/18 01:24:35;;;;;;;24.03;13.97;;;;;;;;;;5104383;28;20208;-80
2023/03/18 01:27:05;;;;;;;51.87;21.83;;;;;;;;;;5093038;28;20240;-80
2023/03/18 01:29:31;;;;;;;51.27;23.90;;;;;;;;;;5103490;28;20207;-80
2023/03/18 01:31:59;;;;;;;73.80;32.50;;;;;;;;;;5096007;28;20209;-79
2023/03/18 01:34:25;;;;;;;26.23;17.37;;;;;;;;;;5103632;28;20208;-79
2023/03/18 01:36:52;;;;;;;7.90;6.23;;;;;;;;;;5095641;28;20234;-80
2023/03/18 01:39:19;;;;;;;8.00;5.20;;;;;;;;;;5092892;28;20595;-80
2023/03/18 01:41:47;;;;;;;6.17;5.03;;;;;;;;;;5096713;28;20307;-80
2023/03/18 01:44:18;;;;;;;6.90;5.47;;;;;;;;;;5113054;28;20199;-80
2023/03/18 01:46:45;;;;;;;9.47;7.33;;;;;;;;;;5094251;28;20204;-80
2023/03/18 01:49:16;;;;;;;6.10;5.47;;;;;;;;;;5092557;28;20747;-80
2023/03/18 01:51:46;;;;;;;6.87;6.17;;;;;;;;;;5098299;28;20302;-80
2023/03/18 01:54:14;;;;;;;20.67;18.20;;;;;;;;;;5099896;28;20216;-80
2023/03/18 01:56:41;;;;;;;10.30;9.20;;;;;;;;;;5092754;28;20203;-80
2023/03/18 01:59:09;;;;;;;5.87;5.37;;;;;;;;;;5092180;28;20207;-82
2023/03/18 02:01:40;;;;;;;6.23;4.93;;;;;;;;;;5092165;28;20196;-81
2023/03/18 02:04:09;;;;;;;6.33;5.73;;;;;;;;;;5105906;28;20204;-80
2023/03/18 02:06:36;;;;;;;6.10;5.50;;;;;;;;;;5092578;28;20200;-81
2023/03/18 02:09:03;;;;;;;5.50;4.93;;;;;;;;;;5105791;28;20208;-80
2023/03/18 02:11:31;;;;;;;6.10;5.50;;;;;;;;;;5101126;28;20651;-80
2023/03/18 02:14:00;;;;;;;5.60;5.03;;;;;;;;;;5096951;28;20208;-80
2023/03/18 02:16:29;;;;;;;5.93;5.33;;;;;;;;;;5092190;28;20194;-80
2023/03/18 02:19:02;;;;;;;8.77;5.97;;;;;;;;;;5094991;28;20227;-80
2023/03/18 02:21:36;;;;;;;6.60;5.87;;;;;;;;;;5101814;28;20747;-80
2023/03/18 02:24:08;;;;;;;7.57;6.77;;;;;;;;;;5091956;28;20234;-80
2023/03/18 02:26:39;;;;;;;6.10;4.90;;;;;;;;;;5092099;28;20203;-80
2023/03/18 02:29:08;;;;;;;7.33;6.63;;;;;;;;;;5091517;28;20635;-82
2023/03/18 02:31:36;;;;;;;6.03;5.33;;;;;;;;;;5092266;28;20211;-80
2023/03/18 02:34:06;;;;;;;6.50;5.87;;;;;;;;;;5078184;28;20233;-80
2023/03/18 02:36:33;;;;;;;5.77;5.17;;;;;;;;;;5105749;28;20200;-80
2023/03/18 02:39:00;;;;;;;9.47;7.00;;;;;;;;;;5091621;28;20228;-80
2023/03/18 02:41:29;;;;;;;7.00;5.37;;;;;;;;;;5092108;28;20218;-80
2023/03/18 02:43:56;;;;;;;8.53;7.13;;;;;;;;;;5104318;28;20208;-80
2023/03/18 02:46:34;;;;;;;5.60;5.00;;;;;;;;;;5105035;28;20223;-80
2023/03/18 02:49:03;;;;;;;6.40;5.80;;;;;;;;;;5091560;28;20687;-80
2023/03/18 02:51:30;;;;;;;7.73;5.53;;;;;;;;;;5108246;28;20211;-80
2023/03/18 02:54:00;;;;;;;5.67;4.73;;;;;;;;;;5101020;28;20704;-80
2023/03/18 02:56:27;;;;;;;6.47;5.37;;;;;;;;;;5091227;28;20204;-80
2023/03/18 02:58:54;;;;;;;6.23;5.63;;;;;;;;;;5102640;28;20288;-81
2023/03/18 03:01:21;;;;;;;6.87;5.83;;;;;;;;;;5111946;28;20207;-81
2023/03/18 03:03:50;;;;;;;5.93;5.33;;;;;;;;;;5111630;28;20286;-80
2023/03/18 03:06:17;;;;;;;6.20;5.37;;;;;;;;;;5106006;28;20704;-81
2023/03/18 03:08:46;;;;;;;4.97;4.37;;;;;;;;;;5103618;28;20681;-80
2023/03/18 03:11:13;;;;;;;5.90;5.27;;;;;;;;;;5092176;28;20234;-81
2023/03/18 03:13:40;;;;;;;7.43;5.20;;;;;;;;;;5091890;28;20208;-81
2023/03/18 03:16:08;;;;;;;5.83;5.23;;;;;;;;;;5097765;28;20685;-80
2023/03/18 03:18:35;;;;;;;7.47;5.33;;;;;;;;;;5098143;28;20319;-80
2023/03/18 03:21:05;;;;;;;7.37;5.27;;;;;;;;;;5071339;28;20665;-80
2023/03/18 03:23:32;;;;;;;6.07;5.07;;;;;;;;;;5085315;28;20579;-80
2023/03/18 03:25:59;;;;;;;5.10;4.60;;;;;;;;;;5098931;28;20694;-80
2023/03/18 03:28:26;;;;;;;5.83;4.57;;;;;;;;;;5110501;28;20618;-80
2023/03/18 03:30:52;;;;;;;5.93;5.03;;;;;;;;;;5099094;28;20725;-80
2023/03/18 03:33:19;;;;;;;8.70;5.43;;;;;;;;;;5096506;28;20258;-80
2023/03/18 03:35:46;;;;;;;5.27;4.77;;;;;;;;;;5099865;28;20200;-80
2023/03/18 03:38:14;;;;;;;7.37;4.60;;;;;;;;;;5111264;28;20232;-80
2023/03/18 03:40:41;;;;;;;5.87;5.27;;;;;;;;;;5103289;28;20290;-80
2023/03/18 03:43:11;;;;;;;8.50;5.73;;;;;;;;;;5104603;28;20265;-80
2023/03/18 03:45:38;;;;;;;5.13;4.70;;;;;;;;;;5091204;28;20706;-80
2023/03/18 03:48:05;;;;;;;5.87;5.07;;;;;;;;;;5105014;28;20204;-80
2023/03/18 03:50:32;;;;;;;6.50;4.43;;;;;;;;;;5090713;28;20196;-80
2023/03/18 03:52:59;;;;;;;5.40;4.20;;;;;;;;;;5091079;28;20204;-80
2023/03/18 03:55:27;;;;;;;6.57;4.73;;;;;;;;;;5100768;28;20214;-81
2023/03/18 03:57:54;;;;;;;5.87;5.27;;;;;;;;;;5097100;28;20690;-81
2023/03/18 04:00:23;;;;;;;7.00;4.90;;;;;;;;;;5111121;28;20269;-81
2023/03/18 04:02:51;;;;;;;7.10;5.00;;;;;;;;;;5093446;28;20200;-81
2023/03/18 04:05:20;;;;;;;5.60;5.03;;;;;;;;;;5093839;28;20208;-81
2023/03/18 04:07:47;;;;;;;5.50;4.90;;;;;;;;;;5094780;28;20279;-80
2023/03/18 04:10:16;;;;;;;10.37;5.23;;;;;;;;;;5106401;28;20235;-81
2023/03/18 04:12:46;;;;;;;7.43;5.03;;;;;;;;;;5101445;28;20218;-80
2023/03/18 04:15:14;;;;;;;4.73;4.30;;;;;;;;;;5102018;28;20796;-81
2023/03/18 04:17:41;;;;;;;6.00;5.17;;;;;;;;;;5114251;28;20289;-81
2023/03/18 04:20:09;;;;;;;5.77;4.80;;;;;;;;;;5114582;28;20678;-81
2023/03/18 04:22:36;;;;;;;4.93;4.43;;;;;;;;;;5107652;28;20258;-80
2023/03/18 04:25:04;;;;;;;5.90;5.10;;;;;;;;;;5094110;28;20204;-81
2023/03/18 04:27:31;;;;;;;6.23;5.53;;;;;;;;;;5101677;28;20207;-81
2023/03/18 04:29:59;;;;;;;5.77;5.17;;;;;;;;;;5100041;28;20638;-81
2023/03/18 04:32:26;;;;;;;5.50;5.00;;;;;;;;;;5102448;28;20230;-81
2023/03/18 04:34:53;;;;;;;5.73;4.67;;;;;;;;;;5114401;28;20355;-81
2023/03/18 04:37:19;;;;;;;8.67;4.90;;;;;;;;;;5106106;28;20213;-81
2023/03/18 04:39:47;;;;;;;6.17;4.77;;;;;;;;;;5093484;28;20219;-81
2023/03/18 04:42:14;;;;;;;5.80;4.63;;;;;;;;;;5103401;28;20203;-82
2023/03/18 04:44:41;;;;;;;6.77;5.27;;;;;;;;;;5111539;28;20231;-81
2023/03/18 04:47:10;;;;;;;5.33;4.80;;;;;;;;;;5104255;28;20241;-81
2023/03/18 04:49:37;;;;;;;4.80;4.30;;;;;;;;;;5100153;28;20188;-81
2023/03/18 04:52:06;;;;;;;8.03;4.73;;;;;;;;;;5114380;28;20286;-82
2023/03/18 04:54:33;;;;;;;6.53;4.77;;;;;;;;;;5114201;28;20324;-82
2023/03/18 04:56:59;;;;;;;4.37;3.97;;;;;;;;;;5114124;28;20232;-82
2023/03/18 04:59:29;;;;;;;5.80;5.20;;;;;;;;;;5095979;28;20224;-81
2023/03/18 05:01:56;;;;;;;4.87;4.47;;;;;;;;;;5104976;28;20290;-83
2023/03/18 05:04:24;;;;;;;5.97;4.80;;;;;;;;;;5100262;28;20592;-82
2023/03/18 05:06:50;;;;;;;10.27;6.03;;;;;;;;;;5114221;28;20639;-83
2023/03/18 05:09:18;;;;;;;6.10;4.90;;;;;;;;;;5108628;28;20594;-82
2023/03/18 05:11:45;;;;;;;6.03;5.20;;;;;;;;;;5101466;28;20255;-82
2023/03/18 05:14:12;;;;;;;5.27;4.77;;;;;;;;;;5104284;28;20200;-82
2023/03/18 05:16:39;;;;;;;5.07;4.57;;;;;;;;;;5089658;28;20208;-81
2023/03/18 05:19:07;;;;;;;7.03;5.43;;;;;;;;;;5105759;28;20234;-81
2023/03/18 05:21:35;;;;;;;10.13;6.27;;;;;;;;;;5107758;28;20208;-81
2023/03/18 05:24:02;;;;;;;8.40;6.30;;;;;;;;;;5106236;28;20311;-82
2023/03/18 05:26:29;;;;;;;9.77;7.50;;;;;;;;;;5113197;28;20203;-82
2023/03/18 05:28:56;;;;;;;8.73;6.93;;;;;;;;;;5100531;28;20197;-79
2023/03/18 05:31:23;;;;;;;8.60;6.57;;;;;;;;;;5099601;28;20698;-81
2023/03/18 05:33:50;;;;;;;8.13;6.00;;;;;;;;;;5099077;28;20210;-81
2023/03/18 05:36:17;;;;;;;26.43;12.47;;;;;;;;;;5112991;28;20219;-80
2023/03/18 05:38:45;;;;;;;9.37;6.87;;;;;;;;;;5098626;28;20231;-81
2023/03/18 05:41:12;;;;;;;10.73;7.30;;;;;;;;;;5092411;28;20228;-80
2023/03/18 05:43:39;;;;;;;9.77;6.57;;;;;;;;;;5106281;28;20298;-80
2023/03/18 05:46:06;;;;;;;6.47;5.60;;;;;;;;;;5100235;28;20222;-81
2023/03/18 05:48:33;;;;;;;8.20;5.97;;;;;;;;;;5112225;28;20373;-81
2023/03/18 05:50:59;;;;;;;12.23;8.57;;;;;;;;;;5092452;28;20675;-81
2023/03/18 05:53:26;;;;;;;13.07;10.17;;;;;;;;;;5105664;28;20261;-81
2023/03/18 05:55:55;;;;;;;14.30;12.20;;;;;;;;;;5100208;28;20199;-81
2023/03/18 05:58:22;;;;;;;16.13;10.40;;;;;;;;;;5098114;28;20323;-82
2023/03/18 06:00:50;;;;;;;8.00;6.73;;;;;;;;;;5092705;28;20283;-82
2023/03/18 06:03:17;;;;;;;7.17;4.63;;;;;;;;;;5105683;28;20215;-82
2023/03/18 06:05:44;;;;;;;5.30;4.03;;;;;;;;;;5101170;28;20199;-83
2023/03/18 06:08:10;;;;;;;3.87;3.47;;;;;;;;;;5096966;28;20208;-82
2023/03/18 06:10:37;;;;;;;4.70;3.97;;;;;;;;;;5093548;28;20311;-82
2023/03/18 06:13:06;;;;;;;3.70;3.40;;;;;;;;;;5104211;28;20208;-82
2023/03/18 06:15:33;;;;;;;3.90;2.90;;;;;;;;;;5093807;28;20205;-83
2023/03/18 06:18:00;;;;;;;4.23;3.57;;;;;;;;;;5112594;28;20203;-83
2023/03/18 06:20:26;;;;;;;6.30;3.20;;;;;;;;;;5093904;28;20220;-83
2023/03/18 06:22:53;;;;;;;6.50;3.37;;;;;;;;;;5101184;28;20686;-84
2023/03/18 06:25:24;;;;;;;6.10;3.33;;;;;;;;;;5095786;28;20211;-83
2023/03/18 06:27:51;;;;;;;5.90;4.07;;;;;;;;;;5091428;28;20206;-83
2023/03/18 06:30:20;;;;;;;4.23;3.70;;;;;;;;;;5095237;28;20264;-83
2023/03/18 06:32:47;;;;;;;3.37;2.93;;;;;;;;;;5111696;28;20690;-83
2023/03/18 06:35:15;;;;;;;4.03;3.63;;;;;;;;;;5112092;28;20298;-85
2023/03/18 06:37:42;;;;;;;3.93;3.30;;;;;;;;;;5101066;28;20215;-83
2023/03/18 06:40:11;;;;;;;3.87;3.57;;;;;;;;;;5092013;28;20281;-83
2023/03/18 06:42:38;;;;;;;5.77;3.90;;;;;;;;;;5090179;28;20590;-82
2023/03/18 06:45:06;;;;;;;4.90;3.73;;;;;;;;;;5091632;28;20215;-82
2023/03/18 06:47:34;;;;;;;3.40;2.67;;;;;;;;;;5108983;28;20208;-81
2023/03/18 06:50:01;;;;;;;3.83;3.23;;;;;;;;;;5111969;28;20207;-83
2023/03/18 06:52:28;;;;;;;6.33;3.37;;;;;;;;;;5099618;28;20206;-78
2023/03/18 06:54:55;;;;;;;6.23;3.40;;;;;;;;;;5100314;28;20212;-80
2023/03/18 06:57:22;;;;;;;5.97;4.93;;;;;;;;;;5108871;28;20199;-82
2023/03/18 06:59:49;;;;;;;3.60;3.07;;;;;;;;;;5081777;28;20220;-82
2023/03/18 07:02:16;;;;;;;6.03;3.50;;;;;;;;;;5105194;28;20211;-82
2023/03/18 07:04:45;;;;;;;3.57;2.97;;;;;;;;;;5091476;28;20201;-87
2023/03/18 07:07:12;;;;;;;5.83;3.40;;;;;;;;;;5091013;28;20204;-82
2023/03/18 07:09:39;;;;;;;6.53;3.87;;;;;;;;;;5099282;28;20252;-82
2023/03/18 07:12:06;;;;;;;3.10;2.80;;;;;;;;;;5111841;28;20266;-84
2023/03/18 07:14:34;;;;;;;3.47;2.80;;;;;;;;;;5085140;28;20218;-83
2023/03/18 07:17:01;;;;;;;4.97;3.03;;;;;;;;;;5097290;28;20211;-84
2023/03/18 07:19:29;;;;;;;4.73;4.27;;;;;;;;;;5104340;28;20322;-82
2023/03/18 07:21:57;;;;;;;2.87;2.50;;;;;;;;;;5091590;28;20215;-83
2023/03/18 07:24:23;;;;;;;4.27;2.27;;;;;;;;;;5090716;28;20729;-83
2023/03/18 07:26:51;;;;;;;6.70;4.67;;;;;;;;;;5092241;28;20611;-83
2023/03/18 07:29:18;;;;;;;17.90;11.40;;;;;;;;;;5103007;28;20196;-83
2023/03/18 07:31:54;;;;;;;10.07;7.87;;;;;;;;;;5104576;28;20290;-83
2023/03/18 07:34:23;;;;;;;3.47;3.07;;;;;;;;;;5100721;28;20207;-82
2023/03/18 07:36:50;;;;;;;6.73;4.27;;;;;;;;;;5076172;28;20200;-83
2023/03/18 07:39:19;;;;;;;6.53;3.47;;;;;;;;;;5094510;28;20235;-83
2023/03/18 07:41:48;;;;;;;6.03;4.27;;;;;;;;;;5099040;28;20249;-83
2023/03/18 07:44:15;;;;;;;10.60;6.33;;;;;;;;;;5115254;28;20701;-83
2023/03/18 07:46:43;;;;;;;14.03;10.07;;;;;;;;;;5098365;28;20291;-83
2023/03/18 07:49:10;;;;;;;3.97;3.40;;;;;;;;;;5095049;28;20196;-83
2023/03/18 07:51:37;;;;;;;3.67;3.37;;;;;;;;;;5094589;28;20204;-84
2023/03/18 07:54:05;;;;;;;8.70;5.13;;;;;;;;;;5106939;28;20222;-83
2023/03/18 07:56:33;;;;;;;7.27;3.93;;;;;;;;;;5095587;28;20206;-83
2023/03/18 07:59:00;;;;;;;11.60;7.93;;;;;;;;;;5094161;28;20216;-82
2023/03/18 08:01:27;;;;;;;17.83;10.80;;;;;;;;;;5100496;28;20725;-83
2023/03/18 08:03:54;;;;;;;11.43;6.33;;;;;;;;;;5101505;28;20196;-83
2023/03/18 08:06:22;;;;;;;3.43;2.90;;;;;;;;;;5076637;28;20641;-83
2023/03/18 08:08:49;;;;;;;3.20;2.37;;;;;;;;;;5076754;28;20211;-86
2023/03/18 08:11:16;;;;;;;8.90;4.97;;;;;;;;;;5094782;28;20228;-83
2023/03/18 08:13:47;;;;;;;5.83;4.70;;;;;;;;;;5095532;28;20230;-82
2023/03/18 08:16:14;;;;;;;7.00;5.33;;;;;;;;;;5101687;28;20200;-87
2023/03/18 08:18:42;;;;;;;3.10;2.53;;;;;;;;;;5114004;28;20207;-81
2023/03/18 08:21:09;;;;;;;5.43;3.60;;;;;;;;;;5094220;28;20650;-81
2023/03/18 08:23:37;;;;;;;8.80;6.47;;;;;;;;;;5094971;28;20691;-80
2023/03/18 08:26:04;;;;;;;4.17;3.00;;;;;;;;;;5106024;28;20242;-81
2023/03/18 08:28:31;;;;;;;5.77;4.20;;;;;;;;;;5094179;28;20204;-82
2023/03/18 08:31:00;;;;;;;8.67;2.90;;;;;;;;;;5102721;28;20204;-81
2023/03/18 08:33:27;;;;;;;2.33;1.87;;;;;;;;;;5100707;28;20200;-81
2023/03/18 08:35:56;;;;;;;2.03;1.87;;;;;;;;;;5114643;28;20636;-81
2023/03/18 08:38:23;;;;;;;12.43;8.93;;;;;;;;;;5111449;28;20570;-81
2023/03/18 08:40:50;;;;;;;10.33;4.90;;;;;;;;;;5094248;28;20606;-81
2023/03/18 08:43:20;;;;;;;10.03;7.00;;;;;;;;;;5107341;28;20196;-82
2023/03/18 08:45:52;;;;;;;6.40;4.67;;;;;;;;;;5094145;28;20204;-81
2023/03/18 08:48:20;;;;;;;5.17;4.10;;;;;;;;;;5097954;28;20196;-81
2023/03/18 08:50:47;;;;;;;8.17;5.27;;;;;;;;;;5113098;28;20273;-81
2023/03/18 08:53:14;;;;;;;10.10;6.77;;;;;;;;;;5113700;28;20595;-81
2023/03/18 08:55:41;;;;;;;12.83;6.43;;;;;;;;;;5102167;28;20209;-82
2023/03/18 08:58:08;;;;;;;6.63;4.03;;;;;;;;;;5107489;28;20204;-81
2023/03/18 09:00:36;;;;;;;3.83;3.47;;;;;;;;;;5105779;28;20223;-82
2023/03/18 09:03:03;;;;;;;5.07;3.20;;;;;;;;;;5094126;28;20585;-81
2023/03/18 09:05:32;;;;;;;4.43;1.97;;;;;;;;;;5093781;28;20205;-82
2023/03/18 09:07:59;;;;;;;2.93;2.47;;;;;;;;;;5099590;28;20696;-81
2023/03/18 09:10:26;;;;;;;14.47;8.23;;;;;;;;;;5100346;28;20228;-82
2023/03/18 09:12:53;;;;;;;5.87;4.03;;;;;;;;;;5106832;28;20212;-82
2023/03/18 09:15:21;;;;;;;4.93;2.23;;;;;;;;;;5093614;28;20204;-82
2023/03/18 09:17:48;;;;;;;5.10;2.50;;;;;;;;;;5087075;28;20209;-83
2023/03/18 09:20:17;;;;;;;3.10;2.33;;;;;;;;;;5113208;28;20231;-82
2023/03/18 09:22:49;;;;;;;4.57;3.07;;;;;;;;;;5106352;28;20265;-81
2023/03/18 09:25:16;;;;;;;7.80;6.17;;;;;;;;;;5092855;28;20253;-81
2023/03/18 09:27:44;;;;;;;6.90;3.77;;;;;;;;;;5092933;28;20208;-81
2023/03/18 09:30:12;;;;;;;3.87;2.43;;;;;;;;;;5106661;28;20200;-81
2023/03/18 09:32:39;;;;;;;4.13;3.10;;;;;;;;;;5101560;28;20636;-82
2023/03/18 09:35:08;;;;;;;5.23;3.33;;;;;;;;;;5095399;28;20234;-81
2023/03/18 09:37:35;;;;;;;3.60;3.30;;;;;;;;;;5092356;28;20211;-82
2023/03/18 09:40:07;;;;;;;5.63;3.13;;;;;;;;;;5092606;28;20327;-81
2023/03/18 09:42:49;;;;;;;5.27;4.53;;;;;;;;;;5092962;28;20281;-82
2023/03/18 09:45:21;;;;;;;3.10;2.50;;;;;;;;;;5081364;28;20204;-82
2023/03/18 09:47:59;;;;;;;3.07;2.50;;;;;;;;;;5092698;28;20200;-81
2023/03/18 09:50:40;;;;;;;5.87;3.10;;;;;;;;;;5092923;28;20250;-82
2023/03/18 09:53:15;;;;;;;8.47;5.17;;;;;;;;;;5112447;28;20218;-83
2023/03/18 09:55:46;;;;;;;5.10;4.43;;;;;;;;;;5099284;28;20210;-82
2023/03/18 09:58:25;;;;;;;7.70;5.07;;;;;;;;;;5104625;28;20283;-82
2023/03/18 10:00:54;;;;;;;8.47;4.13;;;;;;;;;;5105664;28;20273;-82
2023/03/18 10:03:30;;;;;;;3.80;3.50;;;;;;;;;;5092396;28;20206;-82
2023/03/18 10:06:04;;;;;;;7.57;5.20;;;;;;;;;;5092537;28;20200;-82
2023/03/18 10:08:42;;;;;;;4.67;4.27;;;;;;;;;;5091963;28;20717;-84
2023/03/18 10:11:16;;;;;;;8.33;6.13;;;;;;;;;;5089148;28;20354;-81
2023/03/18 10:13:48;;;;;;;3.30;2.67;;;;;;;;;;5091959;28;20212;-83
2023/03/18 10:16:21;;;;;;;3.93;2.63;;;;;;;;;;5072636;28;20664;-83
2023/03/18 10:18:48;;;;;;;4.13;3.37;;;;;;;;;;5087426;28;20262;-81
2023/03/18 10:21:23;;;;;;;6.47;3.60;;;;;;;;;;5091897;28;20706;-82
2023/03/18 10:24:07;;;;;;;4.07;3.13;;;;;;;;;;5074794;28;20229;-86
2023/03/18 10:26:40;;;;;;;4.43;3.40;;;;;;;;;;5071937;28;20334;-81
2023/03/18 10:29:15;;;;;;;4.57;3.50;;;;;;;;;;5066534;28;20211;-82
2023/03/18 10:31:51;;;;;;;3.93;2.57;;;;;;;;;;5091782;28;20211;-82
2023/03/18 10:34:21;;;;;;;5.47;3.30;;;;;;;;;;5091738;28;20208;-82
2023/03/18 10:36:51;;;;;;;5.80;3.00;;;;;;;;;;5088115;28;20220;-82
2023/03/18 10:39:32;;;;;;;;;;;;;;;;;;;;;
2023/03/18 10:42:02;;;;;;;6.13;4.77;;;;;;;;;;5064108;28;20219;-82
2023/03/18 10:44:34;;;;;;;4.70;3.23;;;;;;;;;;5078101;28;20208;-83
2023/03/18 10:47:04;;;;;;;5.57;3.40;;;;;;;;;;5071715;28;20212;-83
2023/03/18 10:49:32;;;;;;;6.37;3.87;;;;;;;;;;5086634;28;20203;-82
2023/03/18 10:52:04;;;;;;;5.80;3.20;;;;;;;;;;5091198;28;20208;-83
2023/03/18 10:54:35;;;;;;;8.47;3.97;;;;;;;;;;5075090;28;20232;-82
2023/03/18 10:57:04;;;;;;;3.93;2.93;;;;;;;;;;5071188;28;20209;-82
2023/03/18 10:59:31;;;;;;;3.10;2.80;;;;;;;;;;5071357;28;20279;-82
2023/03/18 11:02:03;;;;;;;7.67;3.73;;;;;;;;;;5071024;28;20229;-82
2023/03/18 11:04:32;;;;;;;5.60;4.33;;;;;;;;;;5071620;28;20197;-83
2023/03/18 11:07:01;;;;;;;3.33;3.00;;;;;;;;;;5071194;28;20201;-82
2023/03/18 11:09:31;;;;;;;3.97;3.03;;;;;;;;;;5089910;28;20705;-82
2023/03/18 11:12:04;;;;;;;2.50;2.30;;;;;;;;;;5095475;28;20259;-82
2023/03/18 11:14:32;;;;;;;4.03;3.30;;;;;;;;;;5097387;28;20219;-82
2023/03/18 11:17:01;;;;;;;4.50;3.57;;;;;;;;;;5110955;28;20638;-82
2023/03/18 11:19:32;;;;;;;6.17;3.60;;;;;;;;;;5111640;28;20290;-83
2023/03/18 11:22:05;;;;;;;6.87;4.53;;;;;;;;;;5109885;28;20227;-82
2023/03/18 11:24:38;;;;;;;4.37;3.60;;;;;;;;;;5090955;28;20746;-82
2023/03/18 11:27:24;;;;;;;5.20;2.77;;;;;;;;;;5090803;28;20752;-82
2023/03/18 11:29:55;;;;;;;2.10;1.97;;;;;;;;;;5090950;28;20226;-81
2023/03/18 11:32:25;;;;;;;2.43;2.20;;;;;;;;;;5077865;28;20596;-84
2023/03/18 11:34:56;;;;;;;4.30;2.97;;;;;;;;;;5105681;28;20218;-81
2023/03/18 11:37:33;;;;;;;2.80;2.50;;;;;;;;;;5101104;28;20742;-79
2023/03/18 11:40:18;;;;;;;2.63;2.30;;;;;;;;;;5085516;28;20203;-79
2023/03/18 11:42:48;;;;;;;2.70;2.10;;;;;;;;;;5093816;28;20675;-80
2023/03/18 11:45:35;;;;;;;2.67;2.20;;;;;;;;;;5091035;28;20208;-81
2023/03/18 11:48:03;;;;;;;3.53;2.50;;;;;;;;;;5085089;28;20663;-79
2023/03/18 11:50:39;;;;;;;4.83;2.80;;;;;;;;;;5098407;28;20731;-79
2023/03/18 11:53:11;;;;;;;2.20;2.00;;;;;;;;;;5077630;28;20200;-80
2023/03/18 11:55:42;;;;;;;8.37;5.53;;;;;;;;;;5105236;28;20208;-80
2023/03/18 11:58:31;;;;;;;4.87;2.80;;;;;;;;;;5110724;28;20203;-80
2023/03/18 12:01:04;;;;;;;5.20;3.33;;;;;;;;;;5097261;28;20701;-80
2023/03/18 12:03:57;;;;;;;3.00;2.70;;;;;;;;;;5097887;28;20212;-79
2023/03/18 12:06:27;;;;;;;3.43;2.50;;;;;;;;;;5092151;28;20204;-81
2023/03/18 12:09:03;;;;;;;8.20;3.07;;;;;;;;;;5107003;28;20256;-85
2023/03/18 12:11:48;;;;;;;2.43;2.20;;;;;;;;;;5100634;28;20303;-82
2023/03/18 12:14:22;;;;;;;3.27;2.40;;;;;;;;;;5108641;28;20740;-81
2023/03/18 12:16:58;;;;;;;5.57;4.40;;;;;;;;;;5098644;28;20703;-83
2023/03/18 12:19:49;;;;;;;6.73;4.00;;;;;;;;;;5090995;28;20275;-82
2023/03/18 12:22:47;;;;;;;3.13;2.67;;;;;;;;;;5093399;28;20235;-80
2023/03/18 12:25:29;;;;;;;4.23;2.30;;;;;;;;;;5111007;28;20234;-81
2023/03/18 12:28:01;;;;;;;2.60;2.33;;;;;;;;;;5094103;28;20712;-81
2023/03/18 12:30:50;;;;;;;3.20;2.60;;;;;;;;;;5107611;28;20306;-81
2023/03/18 12:33:39;;;;;;;2.73;2.20;;;;;;;;;;5093830;28;20212;-82
2023/03/18 12:36:17;;;;;;;2.17;1.87;;;;;;;;;;5093983;28;20196;-82
2023/03/18 12:39:28;;;;;;;3.60;2.23;;;;;;;;;;5114007;28;20665;-82
2023/03/18 12:42:05;;;;;;;4.00;2.53;;;;;;;;;;5088598;28;20604;-83
2023/03/18 12:44:46;;;;;;;4.87;2.67;;;;;;;;;;5106832;28;20203;-83
2023/03/18 12:47:17;;;;;;;2.97;2.20;;;;;;;;;;5081798;28;20261;-83
2023/03/18 12:49:48;;;;;;;4.60;4.20;;;;;;;;;;5093122;28;20204;-82
2023/03/18 12:52:26;;;;;;;5.90;4.33;;;;;;;;;;5103937;28;20204;-82
2023/03/18 12:55:01;;;;;;;4.73;2.60;;;;;;;;;;5100503;28;20227;-87
2023/03/18 12:57:34;;;;;;;12.13;7.67;;;;;;;;;;5101089;28;20289;-83
2023/03/18 13:00:09;;;;;;;15.40;9.97;;;;;;;;;;5081026;28;20215;-83
2023/03/18 13:02:45;;;;;;;9.30;5.77;;;;;;;;;;5107340;28;20612;-83
2023/03/18 13:05:23;;;;;;;12.00;7.93;;;;;;;;;;5103310;28;20210;-83
2023/03/18 13:07:54;;;;;;;19.00;9.57;;;;;;;;;;5095550;28;20208;-83
2023/03/18 13:10:22;;;;;;;9.17;5.37;;;;;;;;;;5105875;28;20235;-82
2023/03/18 13:12:51;;;;;;;4.20;3.33;;;;;;;;;;5095344;28;20257;-83
2023/03/18 13:15:27;;;;;;;14.30;7.87;;;;;;;;;;5100386;28;20212;-82
2023/03/18 13:17:58;;;;;;;5.97;3.30;;;;;;;;;;5088798;28;20256;-88
2023/03/18 13:20:30;;;;;;;6.90;3.80;;;;;;;;;;5098560;28;20626;-83
2023/03/18 13:23:14;;;;;;;35.57;17.30;;;;;;;;;;5093336;28;20205;-83
2023/03/18 13:25:47;;;;;;;4.47;3.17;;;;;;;;;;5093059;28;20200;-82
2023/03/18 13:28:27;;;;;;;8.03;5.10;;;;;;;;;;5093383;28;20212;-82
2023/03/18 13:31:00;;;;;;;9.03;6.00;;;;;;;;;;5080770;28;20591;-84
2023/03/18 13:33:49;;;;;;;3.37;2.67;;;;;;;;;;5106185;28;20214;-83
2023/03/18 13:36:25;;;;;;;5.50;4.20;;;;;;;;;;5092123;28;20680;-82
2023/03/18 13:39:07;;;;;;;3.37;3.00;;;;;;;;;;5086946;28;20238;-82
2023/03/18 13:41:48;;;;;;;2.60;2.20;;;;;;;;;;5096474;28;20270;-82
2023/03/18 13:44:18;;;;;;;3.70;2.80;;;;;;;;;;5104464;28;20214;-82
2023/03/18 13:46:55;;;;;;;3.80;2.80;;;;;;;;;;5095650;28;20287;-82
2023/03/18 13:49:28;;;;;;;5.23;3.77;;;;;;;;;;5099397;28;20203;-82
2023/03/18 13:51:57;;;;;;;4.47;2.70;;;;;;;;;;5104345;28;20675;-82
2023/03/18 13:54:31;;;;;;;3.30;2.37;;;;;;;;;;5092710;28;20679;-88
2023/03/18 13:57:17;;;;;;;3.07;2.20;;;;;;;;;;5092905;28;20225;-82
2023/03/18 13:59:46;;;;;;;2.27;2.10;;;;;;;;;;5092056;28;20219;-82
2023/03/18 14:02:44;;;;;;;3.13;2.50;;;;;;;;;;5089453;28;20733;-83
2023/03/18 14:05:39;;;;;;;2.87;2.67;;;;;;;;;;5035986;28;20209;-83
2023/03/18 14:08:49;;;;;;;4.70;2.47;;;;;;;;;;5090373;28;20204;-83
2023/03/18 14:11:52;;;;;;;3.10;2.80;;;;;;;;;;5082144;28;20241;-82
2023/03/18 14:15:04;;;;;;;3.53;2.30;;;;;;;;;;5094203;28;20199;-83
2023/03/18 14:17:46;;;;;;;2.50;2.30;;;;;;;;;;5105400;28;20203;-83
2023/03/18 14:20:23;;;;;;;3.70;2.60;;;;;;;;;;5105159;28;20618;-83
2023/03/18 14:22:53;;;;;;;6.40;3.30;;;;;;;;;;5091702;28;20235;-83
2023/03/18 14:25:40;;;;;;;3.07;2.20;;;;;;;;;;5106045;28;20328;-83
2023/03/18 14:28:27;;;;;;;5.60;3.70;;;;;;;;;;5092000;28;20215;-83
2023/03/18 14:30:59;;;;;;;4.97;4.47;;;;;;;;;;5091828;28;20196;-88
2023/03/18 14:33:34;;;;;;;3.47;2.67;;;;;;;;;;5105479;28;20673;-83
2023/03/18 14:36:06;;;;;;;2.90;2.60;;;;;;;;;;5092211;28;20207;-83
2023/03/18 14:38:38;;;;;;;4.43;3.97;;;;;;;;;;5091828;28;20207;-84
2023/03/18 14:41:13;;;;;;;8.23;5.53;;;;;;;;;;5103624;28;20659;-83
2023/03/18 14:43:47;;;;;;;6.13;4.00;;;;;;;;;;5105823;28;20896;-83
2023/03/18 14:46:17;;;;;;;6.53;3.60;;;;;;;;;;5091584;28;20205;-83
2023/03/18 14:48:45;;;;;;;7.17;3.90;;;;;;;;;;5090754;28;20200;-83
2023/03/18 14:51:15;;;;;;;3.23;2.97;;;;;;;;;;5091652;28;20235;-83
2023/03/18 14:53:44;;;;;;;4.50;3.93;;;;;;;;;;5100300;28;20244;-83
2023/03/18 14:56:17;;;;;;;2.50;2.27;;;;;;;;;;5109662;28;20200;-82
2023/03/18 14:58:52;;;;;;;3.70;2.37;;;;;;;;;;5091783;28;20273;-83
2023/03/18 15:01:23;;;;;;;3.07;2.63;;;;;;;;;;5091636;28;21012;-82
2023/03/18 15:03:53;;;;;;;4.23;3.03;;;;;;;;;;5091506;28;20203;-83